• Join FlightAware (Why Join?)
  • Login
  • US Flag 
03:01AM EDT


 

Airport Tracker/Info


-or-


 

Live Flight TrackerFlight Track Log ✈ EGF4039 ✈ 15-Apr-2013 ✈ KALO - KORD

Flight Track Log - Related Links

Times and Time Zones

All times are in EDT time to prevent confusion due to time zone crossing. See the EGF4039 flight status page for this flight to view local times or setup timezone preferences in your user account.

Time Position Orientation Groundspeed Altitude Reporting Facility
EDT Latitude Longitude Course Direction KTS MPH feet Rate Location/Type
05:00PM 42.5972 -92.4572 97° East 180 207 4,800  Level Chicago Center
05:01PM 42.6389 -92.4036 43° Northeast 264 304 7,400 2,400 Climbing Chicago Center
05:02PM 42.6297 -92.2983 97° East 275 316 9,800 1,680 Climbing Chicago Center
05:03PM 42.4867 -91.7202 97° East  Level FlightAware Approximate
05:03PM 42.6097 -92.1706 102° East 321 369 10,900  Level Chicago Center
05:04PM 42.4786 -91.5837 97° East  Level FlightAware Approximate
05:04PM 42.5911 -92.0261 100° East 369 425 12,500  Level Chicago Center
05:05PM 42.4667 -91.4590 97° East  Level FlightAware Approximate
05:05PM 42.5672 -91.8486 100° East 398 458 14,700  Level Chicago Center
05:06PM 42.5453 -91.7008 101° East 408 470 16,100 1,380 Climbing Chicago Center
05:07PM 42.5236 -91.5469 101° East 423 487 17,600 1,380 Climbing Chicago Center
05:08PM 42.4969 -91.3564 101° East 437 503 19,000 1,500 Climbing Chicago Center
05:09PM 42.4722 -91.1975 102° East 438 504 20,800 1,800 Climbing Chicago Center
05:10PM 42.4503 -91.0442 101° East 423 487 22,800 1,020 Climbing Chicago Center
05:11PM 42.4250 -90.8839 102° East 435 501 23,000 60 Climbing Chicago Center
05:12PM 42.4025 -90.7264 101° East 434 499 23,000  Level Chicago Center
05:13PM 42.4153 -90.5453 84° East 411 473 23,000  Level Chicago Center
05:14PM 42.4319 -90.3867 82° East 426 490 23,000  Level Chicago Center
05:15PM 42.4503 -90.2306 81° East 425 489 23,000  Level Chicago Center
05:16PM 42.4653 -90.0744 83° East 422 486 23,000 -720 Level Chicago Center
05:17PM 42.4814 -89.9089 82° East 415 478 21,600 -1,440 Descending Chicago Center
05:18PM 42.4961 -89.7556 83° East 412 474 20,100 -1,560 Descending Chicago Center
05:19PM 42.5125 -89.5789 83° East 407 468 18,400 -1,560 Descending Chicago Center
05:20PM 42.4944 -89.4233 99° East 428 493 16,900 -1,500 Descending Chicago Center
05:21PM 42.4728 -89.2664 101° East 425 489 15,400 -1,440 Descending Chicago Center
05:22PM 42.4528 -89.1119 100° East 420 483 14,000 -1,260 Descending Chicago Center
05:23PM 42.4347 -88.9608 99° East 410 472 12,800 -1,140 Descending Chicago Center
05:24PM 42.4119 -88.7928 100° East 395 455 11,700 -1,020 Descending Chicago Center
05:25PM 42.3939 -88.6500 100° East 389 448 10,700 -780 Descending Chicago Center
05:27PM 42.3753 -88.5153 101° East 375 432 10,100 -360 Descending Chicago Center
05:28PM 42.3408 -88.3897 110° East 362 417 10,000 -60 Descending Chicago Center
05:29PM 42.2756 -88.2781 128° Southeast 341 392 10,000  Level Chicago Center
05:30PM 42.2169 -88.1858 131° Southeast 328 377 10,000  Level Chicago Center
05:31PM 42.1536 -88.0964 134° Southeast 332 382 10,000 -180 Level Chicago Center
05:32PM 42.0947 -88.0208 136° Southeast 298 343 9,700 -1,020 Descending Chicago Center
05:33PM 42.0883 -87.9133 95° East 287 330 8,000 -1,800 Descending Chicago Center
05:34PM 42.0906 -87.7831 89° East 291 335 6,000 -1,680 Descending Chicago Center
05:35PM 42.0833 -87.6667 95° East 274 315 4,500 -960 Descending Chicago TRACON
05:36PM 42.0833 -87.5667 90° East 277 319 4,000 -240 Descending Chicago TRACON
05:37PM 42.0833 -87.4667 90° East 247 284 4,000  Level Chicago TRACON
05:38PM 42.0333 -87.4167 143° Southeast 237 273 4,000  Level Chicago TRACON
05:39PM 42.0000 -87.4500 217° Southwest 207 238 4,000  Level Chicago TRACON
05:40PM 42.0000 -87.5333 270° West 212 244 4,000  Level Chicago TRACON
05:41PM 42.0000 -87.6167 270° West 233 268 4,000 -240 Level Chicago TRACON
05:42PM 42.0000 -87.7000 270° West 229 264 3,600 -840 Descending Chicago TRACON
05:43PM 42.0000 -87.7833 270° West 219 252 2,400 -1,200 Descending Chicago TRACON